Etusivu
METAR-TAF:

METAR-TAF

Lentoasemat :

Växjö, Ruotsi

Leveyspiiri: 56-51N, Pituuspiiri: 014-50E, korkeus merenpinnasta: 199 m

Tämänhetkinen sää

Tämä raportti tehtiin 21 minuuttia sitten, kello 06.20 UTC
tyyntä
Lämpötila 10°C
Kosteus 100%
Ilmanpaine 1014 hPa
Näkyvyys: 0300 m
sumua

METAR: ESMX 240620Z 00000KT 0300 R01/0600N R19/0450N FG VV002 10/10 Q1014

Aika: 08:41 (06:41 UTC)

Sääennuste

Tämä raportti tehtiin 1 tunti ja 11 minuuttia sitten, kello 05.30 UTC
Ennuste voimassa 24. päivästä klo 06 UTC - 24. päivään klo 15 UTC
Tuuli 2 kn eri suunnista
Näkyvyys: 0050 m
100 ft:n korkeudessa
sumua
Tulossa
24. päivästä klo 06 UTC - 24. päivään klo 07 UTC
Näkyvyys 10 km tai enemmän
ei pilviä alle 1500 m:ssä eikä cumulonimbus-pilviä

TAF: ESMX 240530Z 2406/2415 VRB02KT 0050 FG VV001 BECMG 2406/2407 CAVOK

Säähavainnot ja -ennusteet yli 4000 lentoasemalta (METAR- ja TAF-raportit).

Käytössä olevat sääasemat on merkitty karttaan keltaisilla ja punaisilla pisteillä.

Aseta hiiri pisteen päälle nähdäksesi sääaseman nimen.

Klikkaa sitten nähdäksesi säähavainnot ja -ennusteet.

Kartan vaihtaminen: klikkaa mustalla rastilla varustettuja vihreitä pisteitä, niin voit zoomata sisään; viivalla varustettua vihreää pistettä, niin voit zoomata ulos tai vihreitä nuolia, niin pääset viereisille kartoille.


METAR-TAF: